Terminal Aerodrome Forecast
Issued by NWS Lake Charles, LA

Home | Current Version | Previous Version | Text Only | Print | Product List | Glossary On
Versions: 1 2 3 4 5 6 7 8 9 10 11 12 13 14
000
FTUS44 KLCH 040520
TAFARA
TAF
KARA 040520Z 0406/0506 VRB04KT P6SM FEW025
      TEMPO 0409/0413 3SM BR BKN025
     FM041400 17007KT P6SM VCSH SCT035 PROB30 0416/0422 3SM TSRA
      OVC025CB=

USA.gov is the U.S. government's official web portal to all federal, state and local government web resources and services.